createdAt,value
2022-09-18T00:00:01.000Z,0
2022-09-18T00:01:17.000Z,0
2022-09-18T00:02:34.000Z,0
2022-09-18T00:03:49.000Z,0
2022-09-18T00:05:05.000Z,0
2022-09-18T00:06:21.000Z,0
2022-09-18T00:07:37.000Z,0
2022-09-18T00:08:53.000Z,0
2022-09-18T00:10:10.220Z,0
2022-09-18T00:11:26.368Z,0
2022-09-18T00:12:42.000Z,0
2022-09-18T00:13:58.000Z,0
2022-09-18T00:15:14.000Z,0
2022-09-18T00:16:30.000Z,0
2022-09-18T00:17:47.103Z,0
2022-09-18T00:19:03.257Z,0
2022-09-18T00:20:18.000Z,0
2022-09-18T00:21:34.000Z,0
2022-09-18T00:22:50.000Z,0
2022-09-18T00:24:06.847Z,0
2022-09-18T00:25:22.000Z,0
2022-09-18T00:26:38.000Z,0
2022-09-18T00:27:55.000Z,0
2022-09-18T00:29:11.000Z,0
2022-09-18T00:30:27.588Z,0
2022-09-18T00:31:43.000Z,0
2022-09-18T00:32:59.000Z,0
2022-09-18T00:34:15.000Z,0
2022-09-18T00:35:32.177Z,0
2022-09-18T00:36:47.000Z,0
2022-09-18T00:38:03.000Z,0
2022-09-18T00:39:19.000Z,0
2022-09-18T00:40:35.775Z,0
2022-09-18T00:41:51.000Z,0
2022-09-18T00:43:07.000Z,0
2022-09-18T00:44:23.000Z,0
2022-09-18T00:45:40.000Z,0
2022-09-18T00:46:56.000Z,0
2022-09-18T00:48:12.000Z,0
2022-09-18T00:49:28.000Z,0
2022-09-18T00:50:44.944Z,0
2022-09-18T00:52:00.000Z,0
2022-09-18T00:53:16.000Z,0
2022-09-18T00:54:32.407Z,0
2022-09-18T00:55:48.000Z,0
2022-09-18T00:57:04.692Z,0
2022-09-18T00:58:20.000Z,0
2022-09-18T00:59:36.000Z,0
2022-09-18T01:00:53.149Z,0
2022-09-18T01:02:09.000Z,0
2022-09-18T01:03:25.000Z,0
2022-09-18T01:04:41.000Z,0
2022-09-18T01:05:57.000Z,0
2022-09-18T01:07:13.870Z,0
2022-09-18T01:08:30.021Z,0
2022-09-18T01:09:45.180Z,0
2022-09-18T01:11:01.331Z,0
2022-09-18T01:12:17.000Z,0
2022-09-18T01:13:33.620Z,0
2022-09-18T01:14:49.000Z,0
2022-09-18T01:16:05.000Z,0
2022-09-18T01:17:21.000Z,0
2022-09-18T01:18:37.000Z,0
2022-09-18T01:19:54.000Z,0
2022-09-18T01:21:10.000Z,0
2022-09-18T01:22:26.000Z,0
2022-09-18T01:23:42.000Z,0
2022-09-18T01:24:58.936Z,0
2022-09-18T01:26:13.000Z,0
2022-09-18T01:27:30.000Z,0
2022-09-18T01:28:46.000Z,0
2022-09-18T01:30:02.000Z,0
2022-09-18T01:31:18.000Z,0
2022-09-18T01:32:34.000Z,0
2022-09-18T01:33:50.986Z,0
2022-09-18T01:35:06.000Z,0
2022-09-18T01:36:23.000Z,0
2022-09-18T01:37:39.000Z,0
2022-09-18T01:38:55.000Z,0
2022-09-18T01:40:11.720Z,0
2022-09-18T01:41:27.000Z,0
2022-09-18T01:42:42.000Z,0
2022-09-18T01:43:58.000Z,0
2022-09-18T01:45:15.000Z,0
2022-09-18T01:46:31.000Z,0
2022-09-18T01:47:47.609Z,0
2022-09-18T01:49:03.000Z,0
2022-09-18T01:50:19.000Z,0
2022-09-18T01:51:35.000Z,0
2022-09-18T01:52:52.200Z,0
2022-09-18T01:54:08.000Z,0
2022-09-18T01:55:24.000Z,0
2022-09-18T01:56:40.632Z,0
2022-09-18T01:57:56.000Z,0
2022-09-18T01:59:11.937Z,0
2022-09-18T02:00:27.000Z,0
2022-09-18T02:01:44.000Z,0
2022-09-18T02:03:00.000Z,0
2022-09-18T02:04:16.530Z,0
2022-09-18T02:05:32.000Z,0
2022-09-18T02:06:48.824Z,0
2022-09-18T02:08:04.000Z,0
2022-09-18T02:09:20.000Z,0
2022-09-18T02:10:37.262Z,0
2022-09-18T02:11:53.000Z,0
2022-09-18T02:13:09.571Z,0
2022-09-18T02:14:25.000Z,0
2022-09-18T02:15:40.000Z,0
2022-09-18T02:16:56.000Z,0
2022-09-18T02:18:12.000Z,0
2022-09-18T02:19:29.000Z,0
2022-09-18T02:20:45.448Z,0
2022-09-18T02:22:01.000Z,0
2022-09-18T02:23:17.000Z,0
2022-09-18T02:24:33.000Z,0
2022-09-18T02:25:49.000Z,0
2022-09-18T02:27:05.000Z,0
2022-09-18T02:28:22.000Z,0
2022-09-18T02:29:38.000Z,0
2022-09-18T02:30:54.000Z,0
2022-09-18T02:32:09.000Z,0
2022-09-18T02:33:25.000Z,0
2022-09-18T02:34:41.000Z,0
2022-09-18T02:35:58.000Z,0
2022-09-18T02:37:14.000Z,0
2022-09-18T02:38:30.000Z,0
2022-09-18T02:39:46.000Z,0
2022-09-18T02:41:02.819Z,0
2022-09-18T02:42:18.000Z,0
2022-09-18T02:43:34.000Z,0
2022-09-18T02:44:51.000Z,0
2022-09-18T02:46:07.000Z,0
2022-09-18T02:47:23.000Z,0
2022-09-18T02:48:38.000Z,0
2022-09-18T02:49:54.000Z,0
2022-09-18T02:51:11.004Z,0
2022-09-18T02:52:26.000Z,0
2022-09-18T02:53:43.299Z,0
2022-09-18T02:54:59.000Z,0
2022-09-18T02:56:15.592Z,0
2022-09-18T02:57:31.000Z,0
2022-09-18T02:58:47.000Z,0
2022-09-18T03:00:04.035Z,0
2022-09-18T03:01:19.000Z,0
2022-09-18T03:02:36.000Z,0
2022-09-18T03:03:52.000Z,0
2022-09-18T03:05:07.000Z,0
2022-09-18T03:06:23.000Z,0
2022-09-18T03:07:39.931Z,0
2022-09-18T03:08:55.000Z,0
2022-09-18T03:10:11.000Z,0
2022-09-18T03:11:28.000Z,0
2022-09-18T03:12:44.000Z,0
2022-09-18T03:14:00.659Z,0
2022-09-18T03:15:16.811Z,0
2022-09-18T03:16:32.000Z,0
2022-09-18T03:17:49.100Z,0
2022-09-18T03:19:05.000Z,0
2022-09-18T03:20:21.000Z,0
2022-09-18T03:21:36.000Z,0
2022-09-18T03:22:52.715Z,0
2022-09-18T03:24:08.000Z,0
2022-09-18T03:25:24.000Z,0
2022-09-18T03:26:41.142Z,0
2022-09-18T03:27:57.000Z,0
2022-09-18T03:29:13.000Z,0
2022-09-18T03:30:29.000Z,0
2022-09-18T03:31:45.729Z,0
2022-09-18T03:33:01.000Z,0
2022-09-18T03:34:17.000Z,0
2022-09-18T03:35:34.171Z,0
2022-09-18T03:36:50.000Z,0
2022-09-18T03:38:05.000Z,0
2022-09-18T03:39:21.000Z,0
2022-09-18T03:40:37.000Z,0
2022-09-18T03:41:53.000Z,0
2022-09-18T03:43:09.000Z,0
2022-09-18T03:44:25.000Z,0
2022-09-18T03:45:42.000Z,0
2022-09-18T03:46:58.000Z,0
2022-09-18T03:48:14.000Z,0
2022-09-18T03:49:30.000Z,0
2022-09-18T03:50:46.000Z,0
2022-09-18T03:52:02.000Z,0
2022-09-18T03:53:19.000Z,0
2022-09-18T03:54:34.000Z,0
2022-09-18T03:55:50.000Z,0
2022-09-18T03:57:06.000Z,0
2022-09-18T03:58:22.000Z,0
2022-09-18T03:59:38.000Z,0
2022-09-18T04:00:54.000Z,0
2022-09-18T04:02:10.000Z,0
2022-09-18T04:03:26.000Z,0
2022-09-18T04:04:42.000Z,0
2022-09-18T04:05:58.000Z,0
2022-09-18T04:07:14.000Z,0
2022-09-18T04:08:31.042Z,0
2022-09-18T04:09:46.000Z,0
2022-09-18T04:11:03.000Z,0
2022-09-18T04:12:19.000Z,0
2022-09-18T04:13:35.626Z,0
2022-09-18T04:14:51.772Z,0
2022-09-18T04:16:07.000Z,0
2022-09-18T04:17:24.067Z,0
2022-09-18T04:18:39.000Z,0
2022-09-18T04:19:55.000Z,0
2022-09-18T04:21:11.000Z,0
2022-09-18T04:22:27.000Z,0
2022-09-18T04:23:43.000Z,0
2022-09-18T04:24:59.958Z,0
2022-09-18T04:26:16.120Z,0
2022-09-18T04:27:32.000Z,0
2022-09-18T04:28:48.395Z,0
2022-09-18T04:30:04.000Z,0
2022-09-18T04:31:20.000Z,0
2022-09-18T04:32:36.841Z,0
2022-09-18T04:33:52.000Z,0
2022-09-18T04:35:07.000Z,0
2022-09-18T04:36:24.298Z,0
2022-09-18T04:37:40.443Z,0
2022-09-18T04:38:56.000Z,4
2022-09-18T04:40:12.000Z,0
2022-09-18T04:41:28.000Z,4
2022-09-18T04:42:44.000Z,4
2022-09-18T04:44:00.000Z,4
2022-09-18T04:45:17.323Z,4
2022-09-18T04:46:33.000Z,8
2022-09-18T04:47:49.000Z,4
2022-09-18T04:49:05.000Z,8
2022-09-18T04:50:21.000Z,4
2022-09-18T04:51:36.000Z,4
2022-09-18T04:52:52.000Z,4
2022-09-18T04:54:09.000Z,4
2022-09-18T04:55:25.000Z,8
2022-09-18T04:56:41.000Z,8
2022-09-18T04:57:57.000Z,4
2022-09-18T04:59:13.000Z,8
2022-09-18T05:00:29.000Z,12
2022-09-18T05:01:46.250Z,16
2022-09-18T05:03:02.394Z,8
2022-09-18T05:04:18.538Z,16
2022-09-18T05:05:34.000Z,20
2022-09-18T05:06:50.000Z,20
2022-09-18T05:08:05.999Z,12
2022-09-18T05:09:21.000Z,24
2022-09-18T05:10:38.000Z,32
2022-09-18T05:11:54.000Z,36
2022-09-18T05:13:10.000Z,52
2022-09-18T05:14:26.726Z,68
2022-09-18T05:15:42.000Z,76
2022-09-18T05:16:58.000Z,68
2022-09-18T05:18:14.000Z,56
2022-09-18T05:19:31.323Z,72
2022-09-18T05:20:47.000Z,40
2022-09-18T05:22:03.611Z,48
2022-09-18T05:23:19.000Z,68
2022-09-18T05:24:34.000Z,88
2022-09-18T05:25:50.000Z,128
2022-09-18T05:27:06.000Z,140
2022-09-18T05:28:23.000Z,140
2022-09-18T05:29:39.000Z,152
2022-09-18T05:30:55.652Z,160
2022-09-18T05:32:11.805Z,164
2022-09-18T05:33:27.000Z,176
2022-09-18T05:34:43.000Z,180
2022-09-18T05:36:00.000Z,188
2022-09-18T05:37:16.000Z,188
2022-09-18T05:38:32.536Z,196
2022-09-18T05:39:48.000Z,212
2022-09-18T05:41:03.000Z,216
2022-09-18T05:42:19.000Z,308
2022-09-18T05:43:35.000Z,456
2022-09-18T05:44:52.000Z,500
2022-09-18T05:46:08.000Z,512
2022-09-18T05:47:24.000Z,632
2022-09-18T05:48:40.000Z,612
2022-09-18T05:49:56.000Z,540
2022-09-18T05:51:13.021Z,384
2022-09-18T05:52:28.000Z,304
2022-09-18T05:53:45.000Z,300
2022-09-18T05:55:01.000Z,300
2022-09-18T05:56:17.000Z,308
2022-09-18T05:57:32.000Z,320
2022-09-18T05:58:48.000Z,332
2022-09-18T06:00:04.000Z,340
2022-09-18T06:01:20.000Z,348
2022-09-18T06:02:37.000Z,356
2022-09-18T06:03:53.000Z,364
2022-09-18T06:05:09.648Z,392
2022-09-18T06:06:25.000Z,420
2022-09-18T06:07:41.000Z,424
2022-09-18T06:08:57.000Z,452
2022-09-18T06:10:14.000Z,428
2022-09-18T06:11:30.000Z,448
2022-09-18T06:12:46.529Z,520
2022-09-18T06:14:01.694Z,788
2022-09-18T06:15:17.000Z,924
2022-09-18T06:16:33.000Z,756
2022-09-18T06:17:49.000Z,660
2022-09-18T06:19:06.000Z,636
2022-09-18T06:20:22.000Z,648
2022-09-18T06:21:38.000Z,548
2022-09-18T06:22:54.000Z,476
2022-09-18T06:24:10.000Z,500
2022-09-18T06:25:26.000Z,520
2022-09-18T06:26:42.000Z,872
2022-09-18T06:27:59.000Z,764
2022-09-18T06:29:15.000Z,640
2022-09-18T06:30:30.000Z,676
2022-09-18T06:31:46.000Z,1288
2022-09-18T06:33:02.000Z,1348
2022-09-18T06:34:18.000Z,984
2022-09-18T06:35:34.000Z,564
2022-09-18T06:36:51.000Z,432
2022-09-18T06:38:07.000Z,428
2022-09-18T06:39:23.000Z,436
2022-09-18T06:40:39.000Z,464
2022-09-18T06:41:55.945Z,496
2022-09-18T06:43:11.000Z,552
2022-09-18T06:44:28.000Z,648
2022-09-18T06:45:44.387Z,1200
2022-09-18T06:46:59.000Z,1100
2022-09-18T06:48:15.000Z,1220
2022-09-18T06:49:31.000Z,1284
2022-09-18T06:50:47.000Z,656
2022-09-18T06:52:04.134Z,676
2022-09-18T06:53:20.000Z,864
2022-09-18T06:54:36.000Z,1176
2022-09-18T06:55:52.572Z,1508
2022-09-18T06:57:08.000Z,1676
2022-09-18T06:58:24.000Z,1784
2022-09-18T06:59:40.000Z,1992
2022-09-18T07:00:56.000Z,2408
2022-09-18T07:02:13.000Z,2516
2022-09-18T07:03:28.000Z,2328
2022-09-18T07:04:44.000Z,1992
2022-09-18T07:06:00.000Z,1896
2022-09-18T07:07:16.000Z,1884
2022-09-18T07:08:32.000Z,1668
2022-09-18T07:09:48.000Z,1328
2022-09-18T07:11:05.000Z,904
2022-09-18T07:12:21.000Z,752
2022-09-18T07:13:37.000Z,668
2022-09-18T07:14:53.000Z,628
2022-09-18T07:16:09.000Z,616
2022-09-18T07:17:26.085Z,412
2022-09-18T07:18:42.000Z,364
2022-09-18T07:19:57.000Z,472
2022-09-18T07:21:13.542Z,800
2022-09-18T07:22:29.000Z,1512
2022-09-18T07:23:45.000Z,1628
2022-09-18T07:25:01.000Z,1232
2022-09-18T07:26:18.130Z,940
2022-09-18T07:27:34.000Z,744
2022-09-18T07:28:50.000Z,708
2022-09-18T07:30:06.000Z,684
2022-09-18T07:31:22.000Z,800
2022-09-18T07:32:38.000Z,596
2022-09-18T07:33:54.000Z,648
2022-09-18T07:35:10.000Z,672
2022-09-18T07:36:26.000Z,592
2022-09-18T07:37:42.000Z,608
2022-09-18T07:38:58.000Z,1144
2022-09-18T07:40:14.000Z,1716
2022-09-18T07:41:30.000Z,1960
2022-09-18T07:42:46.000Z,2080
2022-09-18T07:44:03.217Z,2692
2022-09-18T07:45:19.000Z,2596
2022-09-18T07:46:35.000Z,1120
2022-09-18T07:47:51.000Z,1892
2022-09-18T07:49:07.000Z,1800
2022-09-18T07:50:23.000Z,1832
2022-09-18T07:51:39.000Z,1860
2022-09-18T07:52:55.000Z,2072
2022-09-18T07:54:11.000Z,2668
2022-09-18T07:55:27.000Z,2940
2022-09-18T07:56:43.000Z,3504
2022-09-18T07:57:59.000Z,4476
2022-09-18T07:59:15.000Z,5504
2022-09-18T08:00:31.000Z,6364
2022-09-18T08:01:48.000Z,4636
2022-09-18T08:03:04.000Z,2540
2022-09-18T08:04:20.000Z,1364
2022-09-18T08:05:36.000Z,1000
2022-09-18T08:06:52.862Z,964
2022-09-18T08:08:08.000Z,972
2022-09-18T08:09:23.000Z,1008
2022-09-18T08:10:40.000Z,864
2022-09-18T08:11:56.000Z,676
2022-09-18T08:13:12.000Z,540
2022-09-18T08:14:28.767Z,456
2022-09-18T08:15:44.000Z,444
2022-09-18T08:16:59.000Z,512
2022-09-18T08:18:15.000Z,640
2022-09-18T08:19:32.000Z,784
2022-09-18T08:20:48.515Z,844
2022-09-18T08:22:04.000Z,960
2022-09-18T08:23:20.000Z,1184
2022-09-18T08:24:36.000Z,1452
2022-09-18T08:25:52.869Z,1492
2022-09-18T08:27:09.246Z,1352
2022-09-18T08:28:25.000Z,1160
2022-09-18T08:29:41.000Z,1008
2022-09-18T08:30:57.000Z,1064
2022-09-18T08:32:13.000Z,1244
2022-09-18T08:33:28.997Z,1648
2022-09-18T08:34:44.000Z,2508
2022-09-18T08:36:01.000Z,2948
2022-09-18T08:37:17.000Z,3364
2022-09-18T08:38:33.000Z,3344
2022-09-18T08:39:49.000Z,2636
2022-09-18T08:41:05.878Z,1480
2022-09-18T08:42:21.000Z,812
2022-09-18T08:43:37.000Z,700
2022-09-18T08:44:54.000Z,780
2022-09-18T08:46:10.000Z,756
2022-09-18T08:47:26.000Z,532
2022-09-18T08:48:42.000Z,380
2022-09-18T08:49:57.000Z,456
2022-09-18T08:51:13.000Z,656
2022-09-18T08:52:29.000Z,892
2022-09-18T08:53:46.000Z,944
2022-09-18T08:55:02.000Z,764
2022-09-18T08:56:18.000Z,556
2022-09-18T08:57:34.794Z,532
2022-09-18T08:58:50.000Z,808
2022-09-18T09:00:07.101Z,856
2022-09-18T09:01:22.000Z,552
2022-09-18T09:02:39.000Z,520
2022-09-18T09:03:55.000Z,544
2022-09-18T09:05:11.000Z,616
2022-09-18T09:06:26.000Z,756
2022-09-18T09:07:42.000Z,1012
2022-09-18T09:08:59.113Z,1384
2022-09-18T09:10:15.000Z,1748
2022-09-18T09:11:31.000Z,2108
2022-09-18T09:12:47.000Z,2768
2022-09-18T09:14:03.000Z,3248
2022-09-18T09:15:19.000Z,3408
2022-09-18T09:16:35.000Z,3232
2022-09-18T09:17:51.000Z,2760
2022-09-18T09:19:08.000Z,2132
2022-09-18T09:20:24.000Z,1340
2022-09-18T09:21:40.571Z,744
2022-09-18T09:22:55.000Z,552
2022-09-18T09:24:11.880Z,492
2022-09-18T09:25:27.000Z,464
2022-09-18T09:26:43.000Z,496
2022-09-18T09:28:00.000Z,660
2022-09-18T09:29:16.000Z,820
2022-09-18T09:30:32.000Z,1056
2022-09-18T09:31:48.000Z,1212
2022-09-18T09:33:04.000Z,1120
2022-09-18T09:34:20.000Z,1160
2022-09-18T09:35:36.000Z,1992
2022-09-18T09:36:53.000Z,2328
2022-09-18T09:38:09.000Z,2364
2022-09-18T09:39:24.642Z,2276
2022-09-18T09:40:40.000Z,2244
2022-09-18T09:41:56.928Z,2220
2022-09-18T09:43:13.084Z,1864
2022-09-18T09:44:28.000Z,1572
2022-09-18T09:45:45.000Z,1908
2022-09-18T09:47:01.000Z,2280
2022-09-18T09:48:17.000Z,2076
2022-09-18T09:49:33.000Z,3384
2022-09-18T09:50:49.000Z,2696
2022-09-18T09:52:05.000Z,1972
2022-09-18T09:53:22.000Z,1944
2022-09-18T09:54:38.000Z,3260
2022-09-18T09:55:53.000Z,1948
2022-09-18T09:57:09.000Z,1612
2022-09-18T09:58:25.000Z,2044
2022-09-18T09:59:41.000Z,4612
2022-09-18T10:00:57.000Z,5476
2022-09-18T10:02:14.000Z,5660
2022-09-18T10:03:30.000Z,6252
2022-09-18T10:04:46.000Z,7052
2022-09-18T10:06:02.000Z,7276
2022-09-18T10:07:18.000Z,7320
2022-09-18T10:08:34.000Z,7408
2022-09-18T10:09:50.000Z,7424
2022-09-18T10:11:07.292Z,7484
2022-09-18T10:12:22.453Z,7668
2022-09-18T10:13:38.000Z,7844
2022-09-18T10:14:54.741Z,7816
2022-09-18T10:16:10.000Z,5108
2022-09-18T10:17:26.000Z,4104
2022-09-18T10:18:43.178Z,5012
2022-09-18T10:19:59.000Z,4504
2022-09-18T10:21:15.000Z,3764
2022-09-18T10:22:31.000Z,3884
2022-09-18T10:23:47.000Z,4508
2022-09-18T10:25:03.000Z,4236
2022-09-18T10:26:20.063Z,3956
2022-09-18T10:27:36.195Z,5344
2022-09-18T10:28:51.000Z,5568
2022-09-18T10:30:07.500Z,4656
2022-09-18T10:31:23.653Z,4372
2022-09-18T10:32:39.000Z,4244
2022-09-18T10:33:55.000Z,5484
2022-09-18T10:35:11.000Z,4568
2022-09-18T10:36:28.000Z,3260
2022-09-18T10:37:44.376Z,2032
2022-09-18T10:39:00.000Z,1632
2022-09-18T10:40:16.000Z,1472
2022-09-18T10:41:32.816Z,1848
2022-09-18T10:42:48.957Z,1916
2022-09-18T10:44:04.000Z,1964
2022-09-18T10:45:20.263Z,2332
2022-09-18T10:46:36.000Z,2604
2022-09-18T10:47:52.000Z,2556
2022-09-18T10:49:08.706Z,2224
2022-09-18T10:50:24.000Z,2296
2022-09-18T10:51:40.000Z,2216
2022-09-18T10:52:56.000Z,1932
2022-09-18T10:54:13.000Z,1688
2022-09-18T10:55:29.000Z,1696
2022-09-18T10:56:45.000Z,1888
2022-09-18T10:58:01.000Z,1920
2022-09-18T10:59:17.000Z,1608
2022-09-18T11:00:33.000Z,1828
2022-09-18T11:01:48.000Z,2220
2022-09-18T11:03:05.000Z,6304
2022-09-18T11:04:21.000Z,3468
2022-09-18T11:05:37.000Z,1900
2022-09-18T11:06:53.000Z,1580
2022-09-18T11:08:09.898Z,1400
2022-09-18T11:09:25.000Z,2388
2022-09-18T11:10:42.194Z,2036
2022-09-18T11:11:58.340Z,5348
2022-09-18T11:13:14.000Z,4912
2022-09-18T11:14:30.626Z,2740
2022-09-18T11:15:46.000Z,2500
2022-09-18T11:17:02.000Z,2004
2022-09-18T11:18:17.000Z,1652
2022-09-18T11:19:34.000Z,1336
2022-09-18T11:20:50.371Z,1208
2022-09-18T11:22:06.000Z,1216
2022-09-18T11:23:22.664Z,1156
2022-09-18T11:24:38.000Z,1088
2022-09-18T11:25:54.000Z,1016
2022-09-18T11:27:10.000Z,880
2022-09-18T11:28:27.000Z,692
2022-09-18T11:29:43.000Z,524
2022-09-18T11:30:59.532Z,544
2022-09-18T11:32:15.000Z,704
2022-09-18T11:33:31.000Z,916
2022-09-18T11:34:46.000Z,948
2022-09-18T11:36:02.000Z,904
2022-09-18T11:37:19.000Z,928
2022-09-18T11:38:35.424Z,884
2022-09-18T11:39:51.000Z,808
2022-09-18T11:41:07.000Z,792
2022-09-18T11:42:23.862Z,956
2022-09-18T11:43:40.013Z,1268
2022-09-18T11:44:56.152Z,1624
2022-09-18T11:46:12.297Z,4312
2022-09-18T11:47:28.000Z,4552
2022-09-18T11:48:44.604Z,3356
2022-09-18T11:50:00.000Z,3036
2022-09-18T11:51:15.000Z,2348
2022-09-18T11:52:31.000Z,1616
2022-09-18T11:53:47.000Z,1244
2022-09-18T11:55:04.000Z,1424
2022-09-18T11:56:20.000Z,1592
2022-09-18T11:57:36.000Z,1952
2022-09-18T11:58:52.000Z,3440
2022-09-18T12:00:08.000Z,1320
2022-09-18T12:01:25.058Z,1412
2022-09-18T12:02:40.000Z,1360
2022-09-18T12:03:57.000Z,1920
2022-09-18T12:05:13.000Z,1416
2022-09-18T12:06:29.000Z,5752
2022-09-18T12:07:44.000Z,5936
2022-09-18T12:09:00.000Z,5948
2022-09-18T12:10:16.000Z,6296
2022-09-18T12:11:33.000Z,6252
2022-09-18T12:12:49.000Z,2464
2022-09-18T12:14:05.000Z,2460
2022-09-18T12:15:21.000Z,3312
2022-09-18T12:16:37.000Z,2412
2022-09-18T12:17:53.000Z,4612
2022-09-18T12:19:09.000Z,3440
2022-09-18T12:20:26.000Z,2684
2022-09-18T12:21:42.000Z,3056
2022-09-18T12:22:58.000Z,6248
2022-09-18T12:24:13.000Z,7432
2022-09-18T12:25:29.854Z,6232
2022-09-18T12:26:45.000Z,8620
2022-09-18T12:28:01.000Z,4752
2022-09-18T12:29:18.000Z,3616
2022-09-18T12:30:34.000Z,3308
2022-09-18T12:31:49.602Z,2968
2022-09-18T12:33:05.000Z,3092
2022-09-18T12:34:21.000Z,4044
2022-09-18T12:35:37.000Z,4324
2022-09-18T12:36:53.000Z,6744
2022-09-18T12:38:10.329Z,5072
2022-09-18T12:39:26.000Z,5300
2022-09-18T12:40:42.619Z,7564
2022-09-18T12:41:58.000Z,8988
2022-09-18T12:43:14.000Z,4924
2022-09-18T12:44:30.000Z,2000
2022-09-18T12:45:46.000Z,2788
2022-09-18T12:47:03.000Z,2504
2022-09-18T12:48:18.518Z,3052
2022-09-18T12:49:34.000Z,3860
2022-09-18T12:50:50.000Z,3680
2022-09-18T12:52:06.000Z,3100
2022-09-18T12:53:23.083Z,2216
2022-09-18T12:54:39.000Z,1776
2022-09-18T12:55:55.000Z,1852
2022-09-18T12:57:11.000Z,1564
2022-09-18T12:58:27.000Z,1560
2022-09-18T12:59:43.000Z,1440
2022-09-18T13:00:59.000Z,1616
2022-09-18T13:02:15.000Z,1156
2022-09-18T13:03:32.000Z,848
2022-09-18T13:04:47.409Z,780
2022-09-18T13:06:03.000Z,704
2022-09-18T13:07:19.000Z,688
2022-09-18T13:08:35.000Z,640
2022-09-18T13:09:51.000Z,580
2022-09-18T13:11:08.135Z,800
2022-09-18T13:12:24.000Z,836
2022-09-18T13:13:40.000Z,796
2022-09-18T13:14:56.000Z,772
2022-09-18T13:16:12.000Z,864
2022-09-18T13:17:28.000Z,944
2022-09-18T13:18:45.008Z,1248
2022-09-18T13:20:00.000Z,936
2022-09-18T13:21:16.000Z,3384
2022-09-18T13:22:32.000Z,2956
2022-09-18T13:23:48.000Z,3672
2022-09-18T13:25:04.000Z,4076
2022-09-18T13:26:20.894Z,4328
2022-09-18T13:27:36.000Z,4244
2022-09-18T13:28:53.183Z,2616
2022-09-18T13:30:09.000Z,1288
2022-09-18T13:31:25.479Z,1120
2022-09-18T13:32:41.000Z,1184
2022-09-18T13:33:57.000Z,1364
2022-09-18T13:35:13.000Z,3660
2022-09-18T13:36:29.000Z,1672
2022-09-18T13:37:44.000Z,3756
2022-09-18T13:39:01.000Z,1440
2022-09-18T13:40:17.000Z,1356
2022-09-18T13:41:33.000Z,1828
2022-09-18T13:42:49.802Z,1832
2022-09-18T13:44:05.000Z,2204
2022-09-18T13:45:21.000Z,2696
2022-09-18T13:46:38.000Z,3504
2022-09-18T13:47:54.000Z,3560
2022-09-18T13:49:10.000Z,3268
2022-09-18T13:50:26.000Z,3004
2022-09-18T13:51:42.000Z,3100
2022-09-18T13:52:58.000Z,2876
2022-09-18T13:54:13.000Z,2560
2022-09-18T13:55:30.000Z,2392
2022-09-18T13:56:46.000Z,2252
2022-09-18T13:58:02.000Z,1896
2022-09-18T13:59:18.000Z,2096
2022-09-18T14:00:34.000Z,1904
2022-09-18T14:01:50.000Z,2440
2022-09-18T14:03:06.000Z,2436
2022-09-18T14:04:23.000Z,2104
2022-09-18T14:05:39.000Z,1692
2022-09-18T14:06:55.000Z,2312
2022-09-18T14:08:11.000Z,3320
2022-09-18T14:09:27.000Z,2708
2022-09-18T14:10:42.000Z,2768
2022-09-18T14:11:58.000Z,2620
2022-09-18T14:13:15.000Z,2540
2022-09-18T14:14:31.000Z,2536
2022-09-18T14:15:47.605Z,2272
2022-09-18T14:17:03.000Z,1656
2022-09-18T14:18:19.000Z,1460
2022-09-18T14:19:35.000Z,1712
2022-09-18T14:20:51.000Z,2044
2022-09-18T14:22:08.000Z,2032
2022-09-18T14:23:24.000Z,1760
2022-09-18T14:24:40.641Z,1552
2022-09-18T14:25:56.764Z,1560
2022-09-18T14:27:11.937Z,1612
2022-09-18T14:28:28.068Z,1476
2022-09-18T14:29:43.000Z,1372
2022-09-18T14:31:00.000Z,1324
2022-09-18T14:32:16.000Z,1248
2022-09-18T14:33:32.000Z,1168
2022-09-18T14:34:48.000Z,1308
2022-09-18T14:36:04.000Z,1488
2022-09-18T14:37:21.086Z,1488
2022-09-18T14:38:37.000Z,1524
2022-09-18T14:39:53.000Z,1624
2022-09-18T14:41:09.000Z,1664
2022-09-18T14:42:25.000Z,1712
2022-09-18T14:43:40.000Z,1944
2022-09-18T14:44:56.000Z,2124
2022-09-18T14:46:12.000Z,2444
2022-09-18T14:47:29.000Z,2384
2022-09-18T14:48:45.418Z,2344
2022-09-18T14:50:01.000Z,2116
2022-09-18T14:51:17.000Z,1828
2022-09-18T14:52:33.849Z,1484
2022-09-18T14:53:49.000Z,1296
2022-09-18T14:55:05.000Z,932
2022-09-18T14:56:22.000Z,920
2022-09-18T14:57:38.000Z,848
2022-09-18T14:58:54.000Z,836
2022-09-18T15:00:09.000Z,764
2022-09-18T15:01:25.882Z,716
2022-09-18T15:02:42.026Z,684
2022-09-18T15:03:58.189Z,680
2022-09-18T15:05:14.000Z,724
2022-09-18T15:06:30.000Z,740
2022-09-18T15:07:46.000Z,712
2022-09-18T15:09:02.000Z,700
2022-09-18T15:10:18.899Z,704
2022-09-18T15:11:34.000Z,700
2022-09-18T15:12:50.000Z,684
2022-09-18T15:14:07.349Z,860
2022-09-18T15:15:23.481Z,944
2022-09-18T15:16:38.000Z,924
2022-09-18T15:17:54.000Z,728
2022-09-18T15:19:10.000Z,892
2022-09-18T15:20:26.000Z,884
2022-09-18T15:21:42.000Z,820
2022-09-18T15:22:59.000Z,836
2022-09-18T15:24:15.000Z,792
2022-09-18T15:25:31.000Z,788
2022-09-18T15:26:47.000Z,680
2022-09-18T15:28:03.000Z,764
2022-09-18T15:29:19.000Z,744
2022-09-18T15:30:36.000Z,732
2022-09-18T15:31:52.000Z,608
2022-09-18T15:33:07.000Z,712
2022-09-18T15:34:23.694Z,524
2022-09-18T15:35:39.000Z,464
2022-09-18T15:36:55.000Z,456
2022-09-18T15:38:11.000Z,448
2022-09-18T15:39:28.000Z,440
2022-09-18T15:40:44.000Z,436
2022-09-18T15:42:00.000Z,428
2022-09-18T15:43:16.000Z,424
2022-09-18T15:44:32.000Z,420
2022-09-18T15:45:49.009Z,416
2022-09-18T15:47:05.152Z,420
2022-09-18T15:48:21.000Z,436
2022-09-18T15:49:36.000Z,436
2022-09-18T15:50:52.000Z,460
2022-09-18T15:52:08.000Z,472
2022-09-18T15:53:24.000Z,568
2022-09-18T15:54:40.000Z,608
2022-09-18T15:55:57.182Z,632
2022-09-18T15:57:13.000Z,624
2022-09-18T15:58:29.000Z,596
2022-09-18T15:59:45.000Z,564
2022-09-18T16:01:01.000Z,528
2022-09-18T16:02:17.000Z,528
2022-09-18T16:03:33.000Z,524
2022-09-18T16:04:49.000Z,512
2022-09-18T16:06:05.000Z,508
2022-09-18T16:07:21.000Z,524
2022-09-18T16:08:37.673Z,492
2022-09-18T16:09:53.000Z,620
2022-09-18T16:11:09.947Z,756
2022-09-18T16:12:26.092Z,660
2022-09-18T16:13:42.000Z,604
2022-09-18T16:14:58.000Z,504
2022-09-18T16:16:14.000Z,568
2022-09-18T16:17:30.675Z,588
2022-09-18T16:18:46.000Z,604
2022-09-18T16:20:02.000Z,568
2022-09-18T16:21:18.000Z,524
2022-09-18T16:22:34.000Z,488
2022-09-18T16:23:50.000Z,468
2022-09-18T16:25:06.567Z,460
2022-09-18T16:26:22.000Z,452
2022-09-18T16:27:38.866Z,436
2022-09-18T16:28:55.011Z,424
2022-09-18T16:30:11.159Z,412
2022-09-18T16:31:27.000Z,404
2022-09-18T16:32:43.000Z,396
2022-09-18T16:33:59.588Z,392
2022-09-18T16:35:15.000Z,384
2022-09-18T16:36:31.000Z,376
2022-09-18T16:37:47.000Z,372
2022-09-18T16:39:03.187Z,368
2022-09-18T16:40:19.330Z,364
2022-09-18T16:41:35.000Z,432
2022-09-18T16:42:51.000Z,508
2022-09-18T16:44:07.000Z,504
2022-09-18T16:45:23.000Z,484
2022-09-18T16:46:39.079Z,532
2022-09-18T16:47:55.000Z,600
2022-09-18T16:49:11.000Z,556
2022-09-18T16:50:27.000Z,504
2022-09-18T16:51:43.000Z,444
2022-09-18T16:52:59.000Z,408
2022-09-18T16:54:15.000Z,356
2022-09-18T16:55:31.000Z,344
2022-09-18T16:56:48.000Z,328
2022-09-18T16:58:04.000Z,320
2022-09-18T16:59:20.000Z,288
2022-09-18T17:00:36.000Z,252
2022-09-18T17:01:52.000Z,244
2022-09-18T17:03:07.000Z,228
2022-09-18T17:04:24.139Z,208
2022-09-18T17:05:40.000Z,180
2022-09-18T17:06:56.000Z,168
2022-09-18T17:08:12.000Z,164
2022-09-18T17:09:28.000Z,152
2022-09-18T17:10:44.000Z,144
2022-09-18T17:12:00.000Z,136
2022-09-18T17:13:16.000Z,124
2022-09-18T17:14:33.000Z,120
2022-09-18T17:15:49.000Z,116
2022-09-18T17:17:05.000Z,112
2022-09-18T17:18:21.000Z,100
2022-09-18T17:19:36.000Z,88
2022-09-18T17:20:52.000Z,84
2022-09-18T17:22:09.191Z,80
2022-09-18T17:23:25.335Z,76
2022-09-18T17:24:41.000Z,72
2022-09-18T17:25:57.000Z,64
2022-09-18T17:27:13.000Z,48
2022-09-18T17:28:29.000Z,40
2022-09-18T17:29:45.000Z,36
2022-09-18T17:31:02.202Z,40
2022-09-18T17:32:18.000Z,36
2022-09-18T17:33:34.000Z,32
2022-09-18T17:34:50.644Z,28
2022-09-18T17:36:05.000Z,24